Time,TemperatureF,DewpointF,PressureIn,WindDirection,WindDirectionDegrees,WindSpeedMPH,WindSpeedGustMPH,Humidity,HourlyPrecipIn,Conditions,Clouds,dailyrainin,SoftwareType,DateUTC
2013-07-12 00:18:00,62.3,61.1,30.04,NNE,30,2.0,7.0,96,0.08,,,0.68,Wunderground v.1.15,2013-07-12 04:18:00,
2013-07-12 00:28:00,62.1,61.2,30.04,NNE,30,2.0,2.0,97,0.09,,,0.69,Wunderground v.1.15,2013-07-12 04:28:00,
2013-07-12 00:38:00,62.1,61.2,30.04,NNE,30,2.0,11.0,97,0.04,,,0.69,Wunderground v.1.15,2013-07-12 04:38:00,
2013-07-12 00:43:00,62.1,61.2,30.03,NNE,30,2.0,11.0,97,0.04,,,0.70,Wunderground v.1.15,2013-07-12 04:43:00,
2013-07-12 00:53:00,62.3,61.7,30.03,NNE,30,3.0,3.0,98,0.04,,,0.70,Wunderground v.1.15,2013-07-12 04:53:00,
2013-07-12 01:18:00,62.0,61.4,30.04,NNE,30,0.0,11.0,98,0.00,,,0.70,Wunderground v.1.15,2013-07-12 05:18:00,
2013-07-12 01:28:00,61.8,61.2,30.04,NNE,30,0.0,11.0,98,0.00,,,0.70,Wunderground v.1.15,2013-07-12 05:28:00,
2013-07-12 01:37:00,62.0,61.4,30.04,NNE,30,0.0,5.0,98,0.00,,,0.70,Wunderground v.1.15,2013-07-12 05:37:00,
2013-07-12 01:52:00,62.3,61.7,30.04,NNE,30,0.0,5.0,98,0.00,,,0.70,Wunderground v.1.15,2013-07-12 05:52:00,
2013-07-12 02:12:00,62.1,61.5,30.05,NNE,30,0.0,5.0,98,0.00,,,0.70,Wunderground v.1.15,2013-07-12 06:12:00,
2013-07-12 02:17:00,62.1,61.5,30.06,NNE,30,0.0,5.0,98,0.00,,,0.71,Wunderground v.1.15,2013-07-12 06:17:00,
2013-07-12 02:27:00,62.0,61.4,30.06,NNE,30,0.0,5.0,98,0.00,,,0.71,Wunderground v.1.15,2013-07-12 06:27:00,
2013-07-12 02:37:00,62.0,61.7,30.06,NNE,30,0.0,2.0,99,0.00,,,0.71,Wunderground v.1.15,2013-07-12 06:37:00,
2013-07-12 02:42:00,62.0,61.7,30.06,NNE,30,0.0,2.0,99,0.00,,,0.71,Wunderground v.1.15,2013-07-12 06:42:00,
2013-07-12 02:52:00,61.8,61.5,30.06,NNE,30,0.0,2.0,99,0.00,,,0.71,Wunderground v.1.15,2013-07-12 06:52:00,
2013-07-12 02:57:00,61.8,61.5,30.06,NNE,30,0.0,2.0,99,0.00,,,0.71,Wunderground v.1.15,2013-07-12 06:57:00,
2013-07-12 03:07:00,61.3,61.0,30.04,NNE,30,0.0,2.0,99,0.00,,,0.71,Wunderground v.1.15,2013-07-12 07:07:00,
2013-07-12 03:22:00,61.5,61.2,30.05,NNE,30,3.0,4.0,99,0.00,,,0.71,Wunderground v.1.15,2013-07-12 07:22:00,
2013-07-12 03:32:00,61.5,61.2,30.04,NNE,30,2.0,5.0,99,0.00,,,0.00,Wunderground v.1.15,2013-07-12 07:32:00,
2013-07-12 03:37:00,61.5,61.2,30.04,NNE,30,2.0,5.0,99,0.00,,,0.00,Wunderground v.1.15,2013-07-12 07:37:00,
2013-07-12 03:47:00,61.3,61.0,30.04,NNE,30,0.0,5.0,99,0.00,,,0.00,Wunderground v.1.15,2013-07-12 07:47:00,
2013-07-12 03:57:00,61.2,60.9,30.04,NNE,30,0.0,5.0,99,0.00,,,0.00,Wunderground v.1.15,2013-07-12 07:57:00,
2013-07-12 04:07:00,61.0,60.7,30.04,NNE,30,0.0,5.0,99,0.00,,,0.00,Wunderground v.1.15,2013-07-12 08:07:00,
2013-07-12 04:17:00,60.9,60.6,30.04,NNE,30,0.0,5.0,99,0.00,,,0.00,Wunderground v.1.15,2013-07-12 08:17:00,
2013-07-12 04:27:00,61.0,60.7,30.04,NNE,30,0.0,5.0,99,0.00,,,0.00,Wunderground v.1.15,2013-07-12 08:27:00,
2013-07-12 04:32:00,60.9,60.6,30.04,NNE,30,0.0,5.0,99,0.00,,,0.00,Wunderground v.1.15,2013-07-12 08:32:00,
2013-07-12 04:42:00,61.0,60.7,30.04,NNE,30,0.0,4.0,99,0.00,,,0.00,Wunderground v.1.15,2013-07-12 08:42:00,
2013-07-12 04:47:00,61.0,60.7,30.04,NNE,30,0.0,4.0,99,0.00,,,0.00,Wunderground v.1.15,2013-07-12 08:47:00,
2013-07-12 04:57:00,61.0,60.7,30.04,NNE,30,0.0,4.0,99,0.00,,,0.00,Wunderground v.1.15,2013-07-12 08:57:00,
2013-07-12 05:07:00,60.9,60.6,30.03,NNE,30,0.0,4.0,99,0.00,,,0.00,Wunderground v.1.15,2013-07-12 09:07:00,
2013-07-12 05:12:00,60.9,60.6,30.03,NNE,30,0.0,4.0,99,0.00,,,0.00,Wunderground v.1.15,2013-07-12 09:12:00,
2013-07-12 05:22:00,60.9,60.6,30.03,NNE,30,0.0,4.0,99,0.00,,,0.00,Wunderground v.1.15,2013-07-12 09:22:00,
2013-07-12 05:32:00,60.9,60.6,30.03,NNE,30,0.0,3.0,99,0.00,,,0.00,Wunderground v.1.15,2013-07-12 09:32:00,
2013-07-12 05:42:00,60.9,60.6,30.03,NNE,30,0.0,3.0,99,0.00,,,0.00,Wunderground v.1.15,2013-07-12 09:42:00,
2013-07-12 05:57:00,60.7,60.4,30.04,NNE,30,0.0,3.0,99,0.00,,,0.00,Wunderground v.1.15,2013-07-12 09:57:00,
2013-07-12 06:07:00,60.5,60.2,30.04,NNE,30,0.0,3.0,99,0.00,,,0.00,Wunderground v.1.15,2013-07-12 10:07:00,
2013-07-12 06:17:00,60.5,60.2,30.04,NNE,30,1.0,3.0,99,0.00,,,0.00,Wunderground v.1.15,2013-07-12 10:17:00,
2013-07-12 06:42:00,60.5,60.2,30.05,NNE,30,0.0,3.0,99,0.00,,,0.00,Wunderground v.1.15,2013-07-12 10:42:00,
2013-07-12 06:52:00,60.7,60.4,30.05,NNE,30,3.0,3.0,99,0.00,,,0.00,Wunderground v.1.15,2013-07-12 10:52:00,
2013-07-12 06:57:00,60.9,60.6,30.05,NNE,30,2.0,3.0,99,0.00,,,0.00,Wunderground v.1.15,2013-07-12 10:57:00,
2013-07-12 07:07:00,60.9,60.6,30.05,NNE,30,3.0,3.0,99,0.00,,,0.00,Wunderground v.1.15,2013-07-12 11:07:00,
2013-07-12 07:17:00,60.7,60.4,30.06,NNE,30,1.0,3.0,99,0.00,,,0.00,Wunderground v.1.15,2013-07-12 11:17:00,
2013-07-12 07:22:00,60.5,60.2,30.06,NNE,30,0.0,3.0,99,0.00,,,0.00,Wunderground v.1.15,2013-07-12 11:22:00,
2013-07-12 07:32:00,60.9,60.6,30.06,NNE,30,1.0,1.0,99,0.00,,,0.00,Wunderground v.1.15,2013-07-12 11:32:00,
2013-07-12 07:57:00,61.2,60.9,30.08,NNE,30,1.0,1.0,99,0.00,,,0.00,Wunderground v.1.15,2013-07-12 11:57:00,
2013-07-12 08:07:00,61.3,61.0,30.08,NNE,30,0.0,5.0,99,0.00,,,0.00,Wunderground v.1.15,2013-07-12 12:07:00,
2013-07-12 08:17:00,61.5,61.2,30.09,NNE,30,0.0,5.0,99,0.00,,,0.00,Wunderground v.1.15,2013-07-12 12:17:00,
2013-07-12 08:32:00,61.5,61.2,30.09,NNE,30,0.0,5.0,99,0.00,,,0.00,Wunderground v.1.15,2013-07-12 12:32:00,
2013-07-12 08:42:00,62.0,61.7,30.09,NNE,30,0.0,5.0,99,0.00,,,0.00,Wunderground v.1.15,2013-07-12 12:42:00,
2013-07-12 08:47:00,62.0,61.7,30.10,NNE,30,0.0,5.0,99,0.00,,,0.00,Wunderground v.1.15,2013-07-12 12:47:00,
2013-07-12 08:57:00,61.8,61.5,30.10,NNE,30,0.0,5.0,99,0.00,,,0.00,Wunderground v.1.15,2013-07-12 12:57:00,
2013-07-12 09:12:00,62.0,61.7,30.11,NNE,30,1.0,1.0,99,0.00,,,0.00,Wunderground v.1.15,2013-07-12 13:12:00,
2013-07-12 09:17:00,62.3,62.0,30.11,NNE,30,0.0,5.0,99,0.00,,,0.00,Wunderground v.1.15,2013-07-12 13:17:00,
2013-07-12 09:52:00,64.2,63.6,30.11,NNE,13,3.0,3.0,98,0.00,,,0.00,Wunderground v.1.15,2013-07-12 13:52:00,
2013-07-12 10:17:00,64.8,63.3,30.11,NNE,13,1.0,7.0,95,0.00,,,0.00,Wunderground v.1.15,2013-07-12 14:17:00,
2013-07-12 10:32:00,65.5,63.1,30.12,NNE,13,1.0,1.0,92,0.00,,,0.00,Wunderground v.1.15,2013-07-12 14:32:00,
2013-07-12 11:07:00,67.4,63.4,30.12,NNE,13,0.0,7.0,87,0.00,,,0.00,Wunderground v.1.15,2013-07-12 15:07:00,
2013-07-12 11:17:00,67.1,61.8,30.12,NNE,13,0.0,7.0,83,0.00,,,0.00,Wunderground v.1.15,2013-07-12 15:17:00,
2013-07-12 11:27:00,67.1,63.1,30.12,NNE,13,0.0,7.0,87,0.00,,,0.00,Wunderground v.1.15,2013-07-12 15:27:00,
2013-07-12 11:42:00,66.8,62.5,30.12,NNE,13,0.0,9.0,86,0.00,,,0.00,Wunderground v.1.15,2013-07-12 15:42:00,
2013-07-12 11:57:00,66.0,62.3,30.14,NNE,13,1.0,1.0,88,0.00,,,0.00,Wunderground v.1.15,2013-07-12 15:57:00,
2013-07-12 12:17:00,65.3,62.9,30.15,NNE,13,0.0,9.0,92,0.00,,,0.00,Wunderground v.1.15,2013-07-12 16:17:00,
2013-07-12 12:27:00,65.0,62.6,30.15,NNE,13,0.0,9.0,92,0.00,,,0.00,Wunderground v.1.15,2013-07-12 16:27:00,
2013-07-12 12:37:00,64.8,62.7,30.14,NNE,13,1.0,1.0,93,0.00,,,0.00,Wunderground v.1.15,2013-07-12 16:37:00,
2013-07-12 12:47:00,65.0,63.2,30.14,NNE,13,0.0,6.0,94,0.00,,,0.00,Wunderground v.1.15,2013-07-12 16:47:00,
2013-07-12 13:17:00,64.7,62.6,30.14,NNE,13,1.0,6.0,93,0.00,,,0.00,Wunderground v.1.15,2013-07-12 17:17:00,
2013-07-12 13:27:00,64.3,62.8,30.14,NNE,13,3.0,3.0,95,0.00,,,0.00,Wunderground v.1.15,2013-07-12 17:27:00,
2013-07-12 13:47:00,64.5,63.3,30.14,NNE,13,0.0,7.0,96,0.00,,,0.00,Wunderground v.1.15,2013-07-12 17:47:00,
2013-07-12 14:07:00,64.8,63.6,30.14,NNE,13,1.0,7.0,96,0.00,,,0.00,Wunderground v.1.15,2013-07-12 18:07:00,
2013-07-12 14:12:00,64.8,63.6,30.14,NNE,13,2.0,7.0,96,0.00,,,0.00,Wunderground v.1.15,2013-07-12 18:12:00,
2013-07-12 14:22:00,65.0,63.8,30.14,North,5,4.0,7.0,96,0.00,,,0.00,Wunderground v.1.15,2013-07-12 18:22:00,
2013-07-12 15:52:00,66.0,63.6,30.13,North,5,1.0,1.0,92,0.00,,,0.00,Wunderground v.1.15,2013-07-12 19:52:00,
2013-07-12 16:32:00,65.2,63.7,30.13,North,5,3.0,5.0,95,0.00,,,0.00,Wunderground v.1.15,2013-07-12 20:32:00,
2013-07-12 16:42:00,65.3,64.1,30.12,North,5,3.0,5.0,96,0.00,,,0.00,Wunderground v.1.15,2013-07-12 20:42:00,
2013-07-12 17:33:00,65.2,64.0,30.14,North,5,0.0,6.0,96,0.00,,,0.01,Wunderground v.1.15,2013-07-12 21:33:00,
2013-07-12 17:58:00,65.3,64.1,30.14,North,5,0.0,6.0,96,0.00,,,0.01,Wunderground v.1.15,2013-07-12 21:58:00,
2013-07-12 18:22:00,65.0,63.8,30.14,North,5,1.0,6.0,96,0.00,,,0.01,Wunderground v.1.15,2013-07-12 22:22:00,
2013-07-12 18:38:00,64.8,63.6,30.14,North,5,0.0,4.0,96,0.00,,,0.01,Wunderground v.1.15,2013-07-12 22:38:00,
2013-07-12 18:48:00,65.0,63.8,30.14,North,5,0.0,4.0,96,0.00,,,0.01,Wunderground v.1.15,2013-07-12 22:48:00,
2013-07-12 19:13:00,64.5,63.0,30.15,North,5,0.0,4.0,95,0.00,,,0.01,Wunderground v.1.15,2013-07-12 23:13:00,
2013-07-12 19:28:00,64.8,63.3,30.16,North,5,0.0,4.0,95,0.00,,,0.01,Wunderground v.1.15,2013-07-12 23:28:00,
2013-07-12 19:38:00,64.7,63.5,30.16,North,5,0.0,3.0,96,0.00,,,0.01,Wunderground v.1.15,2013-07-12 23:38:00,
2013-07-12 19:43:00,64.5,63.3,30.16,North,5,0.0,3.0,96,0.00,,,0.01,Wunderground v.1.15,2013-07-12 23:43:00,
2013-07-12 19:58:00,64.7,63.8,30.15,North,5,0.0,3.0,97,0.00,,,0.01,Wunderground v.1.15,2013-07-12 23:58:00,
2013-07-12 20:08:00,64.5,63.6,30.15,North,5,0.0,3.0,97,0.00,,,0.01,Wunderground v.1.15,2013-07-13 00:08:00,
2013-07-12 20:18:00,64.3,63.7,30.15,North,5,0.0,3.0,98,0.00,,,0.01,Wunderground v.1.15,2013-07-13 00:18:00,
2013-07-12 20:53:00,63.9,63.3,30.15,North,5,1.0,1.0,98,0.00,,,0.01,Wunderground v.1.15,2013-07-13 00:53:00,
2013-07-12 21:23:00,63.9,63.6,30.16,North,5,0.0,0.0,99,0.00,,,0.01,Wunderground v.1.15,2013-07-13 01:23:00,
2013-07-12 21:33:00,63.9,63.3,30.16,North,5,0.0,3.0,98,0.00,,,0.01,Wunderground v.1.15,2013-07-13 01:33:00,
2013-07-12 21:53:00,64.5,63.3,30.16,North,5,0.0,3.0,96,0.00,,,0.01,Wunderground v.1.15,2013-07-13 01:53:00,
2013-07-12 22:18:00,64.7,63.2,30.17,North,5,0.0,3.0,95,0.00,,,0.01,Wunderground v.1.15,2013-07-13 02:18:00,
2013-07-12 22:43:00,64.5,63.3,30.17,North,5,0.0,0.0,96,0.00,,,0.01,Wunderground v.1.15,2013-07-13 02:43:00,
2013-07-12 22:58:00,64.5,63.3,30.17,North,5,0.0,0.0,96,0.00,,,0.01,Wunderground v.1.15,2013-07-13 02:58:00,
2013-07-12 23:18:00,64.7,63.5,30.17,North,5,0.0,0.0,96,0.00,,,0.01,Wunderground v.1.15,2013-07-13 03:18:00,
2013-07-12 23:37:00,64.8,63.3,30.17,North,5,0.0,0.0,95,0.00,,,0.01,Wunderground v.1.15,2013-07-13 03:37:00,
2013-07-12 23:52:00,64.8,63.3,30.18,North,5,0.0,0.0,95,0.00,,,0.01,Wunderground v.1.15,2013-07-13 03:52:00,